createdAt,value
2022-08-10T00:00:12.589Z,26.37
2022-08-10T00:02:39.667Z,26.28
2022-08-10T00:05:06.617Z,26.37
2022-08-10T00:07:33.445Z,26.35
2022-08-10T00:10:00.624Z,26.38
2022-08-10T00:12:53.625Z,26.10
2022-08-10T00:15:52.512Z,26.09
2022-08-10T00:18:02.067Z,26.16
2022-08-10T00:20:29.075Z,26.01
2022-08-10T00:22:57.748Z,26.14
2022-08-10T00:25:24.913Z,26.27
2022-08-10T00:28:03.066Z,26.21
2022-08-10T00:30:31.614Z,26.12
2022-08-10T00:33:02.112Z,26.12
2022-08-10T00:35:28.881Z,26.13
2022-08-10T00:37:56.496Z,25.87
2022-08-10T00:40:35.196Z,26.05
2022-08-10T00:43:05.402Z,26.00
2022-08-10T00:45:32.541Z,25.87
2022-08-10T00:47:59.242Z,25.81
2022-08-10T00:50:26.185Z,25.80
2022-08-10T00:52:54.299Z,25.88
2022-08-10T00:55:21.254Z,25.84
2022-08-10T00:57:55.450Z,25.83
2022-08-10T01:00:23.676Z,25.68
2022-08-10T01:02:51.068Z,25.57
2022-08-10T01:05:20.361Z,25.60
2022-08-10T01:07:56.860Z,25.58
2022-08-10T01:10:23.584Z,25.69
2022-08-10T01:12:55.369Z,25.64
2022-08-10T01:15:33.732Z,25.35
2022-08-10T01:18:07.036Z,25.55
2022-08-10T01:20:52.178Z,25.45
2022-08-10T01:23:28.092Z,25.57
2022-08-10T01:26:10.412Z,25.43
2022-08-10T01:28:58.238Z,25.48
2022-08-10T01:31:26.921Z,25.39
2022-08-10T01:34:02.402Z,25.36
2022-08-10T01:36:32.138Z,25.28
2022-08-10T01:39:00.318Z,25.19
2022-08-10T01:41:28.373Z,25.26
2022-08-10T01:44:14.317Z,25.39
2022-08-10T01:46:41.619Z,25.34
2022-08-10T01:49:09.812Z,25.22
2022-08-10T01:51:47.344Z,25.37
2022-08-10T01:54:14.622Z,25.38
2022-08-10T01:56:42.805Z,25.29
2022-08-10T01:59:11.324Z,25.10
2022-08-10T02:01:39.221Z,25.23
2022-08-10T02:04:09.530Z,25.32
2022-08-10T02:06:43.916Z,25.38
2022-08-10T02:09:14.764Z,25.03
2022-08-10T02:12:07.689Z,25.08
2022-08-10T02:14:32.853Z,25.19
2022-08-10T02:17:01.639Z,25.19
2022-08-10T02:19:28.755Z,25.15
2022-08-10T02:22:36.819Z,25.13
2022-08-10T02:24:42.650Z,25.14
2022-08-10T02:27:09.837Z,25.15
2022-08-10T02:29:36.689Z,25.05
2022-08-10T02:32:09.449Z,24.87
2022-08-10T02:34:37.559Z,24.93
2022-08-10T02:37:10.837Z,25.03
2022-08-10T02:39:38.344Z,25.08
2022-08-10T02:45:14.005Z,25.12
2022-08-10T02:45:27.274Z,25.06
2022-08-10T02:48:10.019Z,24.88
2022-08-10T02:50:37.434Z,25.03
2022-08-10T02:53:54.956Z,25.04
2022-08-10T02:56:12.447Z,25.01
2022-08-10T02:58:46.158Z,24.87
2022-08-10T03:01:14.626Z,24.83
2022-08-10T03:03:44.519Z,24.99
2022-08-10T03:06:12.216Z,24.68
2022-08-10T03:08:43.235Z,24.86
2022-08-10T03:11:10.701Z,24.88
2022-08-10T03:13:37.624Z,24.73
2022-08-10T03:16:04.690Z,24.92
2022-08-10T03:18:31.532Z,25.02
2022-08-10T03:20:58.500Z,24.95
2022-08-10T03:23:25.483Z,24.89
2022-08-10T03:25:54.935Z,24.80
2022-08-10T03:28:22.530Z,24.96
2022-08-10T03:30:49.597Z,24.92
2022-08-10T03:33:16.354Z,24.98
2022-08-10T03:35:43.068Z,25.02
2022-08-10T03:38:30.111Z,24.92
2022-08-10T03:40:57.890Z,24.92
2022-08-10T03:43:24.605Z,24.81
2022-08-10T03:45:54.945Z,24.89
2022-08-10T03:48:23.730Z,24.94
2022-08-10T03:50:52.210Z,24.90
2022-08-10T03:53:25.305Z,24.84
2022-08-10T03:56:27.166Z,24.93
2022-08-10T03:58:54.188Z,25.01
2022-08-10T04:01:21.421Z,24.91
2022-08-10T04:04:11.778Z,24.90
2022-08-10T04:06:40.787Z,25.14
2022-08-10T04:09:07.612Z,25.00
2022-08-10T04:11:34.692Z,24.99
2022-08-10T04:14:01.450Z,24.98
2022-08-10T04:16:28.287Z,24.90
2022-08-10T04:18:56.026Z,24.87
2022-08-10T04:21:27.579Z,24.44
2022-08-10T04:23:54.320Z,24.78
2022-08-10T04:26:21.420Z,24.71
2022-08-10T04:28:49.253Z,24.90
2022-08-10T04:31:16.316Z,24.91
2022-08-10T04:33:44.842Z,25.04
2022-08-10T04:36:11.686Z,25.01
2022-08-10T04:38:38.586Z,25.11
2022-08-10T04:41:05.899Z,25.00
2022-08-10T04:43:32.612Z,25.17
2022-08-10T04:45:59.768Z,25.22
2022-08-10T04:48:39.899Z,25.12
2022-08-10T04:51:10.766Z,25.16
2022-08-10T04:54:05.224Z,25.05
2022-08-10T04:56:31.579Z,25.30
2022-08-10T04:58:59.989Z,25.20
2022-08-10T05:01:26.861Z,25.16
2022-08-10T05:04:34.658Z,25.10
2022-08-10T05:06:51.602Z,25.08
2022-08-10T05:09:18.572Z,25.01
2022-08-10T05:11:45.480Z,25.15
2022-08-10T05:14:12.311Z,25.25
2022-08-10T05:16:39.394Z,25.34
2022-08-10T05:19:06.195Z,24.82
2022-08-10T05:22:02.214Z,24.79
2022-08-10T05:24:19.965Z,25.09
2022-08-10T05:27:00.186Z,25.31
2022-08-10T05:29:37.410Z,25.43
2022-08-10T05:32:04.333Z,25.31
2022-08-10T05:34:31.148Z,25.22
2022-08-10T05:36:58.253Z,25.16
2022-08-10T05:39:31.965Z,25.31
2022-08-10T05:42:01.072Z,25.23
2022-08-10T05:44:28.687Z,25.42
2022-08-10T05:46:55.409Z,25.28
2022-08-10T05:49:22.474Z,25.38
2022-08-10T05:51:49.395Z,25.70
2022-08-10T05:54:16.151Z,25.54
2022-08-10T05:56:57.160Z,25.57
2022-08-10T06:00:33.199Z,25.47
2022-08-10T06:02:33.032Z,25.60
2022-08-10T06:05:03.531Z,25.52
2022-08-10T06:07:30.929Z,25.70
2022-08-10T06:09:59.818Z,25.73
2022-08-10T06:12:30.350Z,25.65
2022-08-10T06:15:05.177Z,25.78
2022-08-10T06:17:34.758Z,25.78
2022-08-10T06:20:01.945Z,25.76
2022-08-10T06:22:30.146Z,25.69
2022-08-10T06:27:48.304Z,25.76
2022-08-10T06:30:20.759Z,25.54
2022-08-10T06:32:51.971Z,25.87
2022-08-10T06:35:19.416Z,25.95
2022-08-10T06:37:50.759Z,25.81
2022-08-10T06:40:19.109Z,26.12
2022-08-10T06:42:49.585Z,26.32
2022-08-10T06:45:22.950Z,26.66
2022-08-10T06:47:51.963Z,26.94
2022-08-10T06:50:36.571Z,27.08
2022-08-10T06:53:17.698Z,27.55
2022-08-10T06:55:57.366Z,27.92
2022-08-10T06:58:26.740Z,28.51
2022-08-10T07:00:54.240Z,28.77
2022-08-10T07:03:21.463Z,28.89
2022-08-10T07:05:51.238Z,28.93
2022-08-10T07:08:19.127Z,29.31
2022-08-10T07:10:46.763Z,29.40
2022-08-10T07:14:16.018Z,29.63
2022-08-10T07:16:04.493Z,29.79
2022-08-10T07:18:31.533Z,30.20
2022-08-10T07:20:58.649Z,30.18
2022-08-10T07:23:58.698Z,30.37
2022-08-10T07:26:15.489Z,30.31
2022-08-10T07:28:45.001Z,30.59
2022-08-10T07:31:55.441Z,30.68
2022-08-10T07:34:06.556Z,30.67
2022-08-10T07:36:35.843Z,30.93
2022-08-10T07:39:03.064Z,30.95
2022-08-10T07:41:32.008Z,30.89
2022-08-10T07:43:59.735Z,31.44
2022-08-10T07:46:27.560Z,31.55
2022-08-10T07:49:03.047Z,31.30
2022-08-10T07:51:47.111Z,31.69
2022-08-10T07:54:23.144Z,31.58
2022-08-10T07:56:51.257Z,31.56
2022-08-10T07:59:19.071Z,31.96
2022-08-10T08:01:51.823Z,31.86
2022-08-10T08:04:19.769Z,32.08
2022-08-10T08:06:46.934Z,32.11
2022-08-10T08:09:13.750Z,31.81
2022-08-10T08:11:41.640Z,31.86
2022-08-10T08:14:08.784Z,31.96
2022-08-10T08:16:36.666Z,32.25
2022-08-10T08:19:26.969Z,32.17
2022-08-10T08:24:05.725Z,32.16
2022-08-10T08:24:38.339Z,32.85
2022-08-10T08:27:05.573Z,32.70
2022-08-10T08:29:33.825Z,33.00
2022-08-10T08:32:02.498Z,33.31
2022-08-10T08:34:33.316Z,32.69
2022-08-10T08:37:01.004Z,32.87
2022-08-10T08:39:28.205Z,33.14
2022-08-10T08:41:55.071Z,32.88
2022-08-10T08:44:40.967Z,33.02
2022-08-10T08:47:18.841Z,32.76
2022-08-10T08:50:09.690Z,33.20
2022-08-10T08:53:21.165Z,32.86
2022-08-10T08:56:05.884Z,32.82
2022-08-10T08:58:33.625Z,33.27
2022-08-10T09:01:03.676Z,33.28
2022-08-10T09:03:48.899Z,33.11
2022-08-10T09:06:25.117Z,33.58
2022-08-10T09:09:03.958Z,33.18
2022-08-10T09:11:37.117Z,33.51
2022-08-10T09:14:09.207Z,33.22
2022-08-10T09:16:48.240Z,33.51
2022-08-10T09:19:49.299Z,33.34
2022-08-10T09:22:32.580Z,33.61
2022-08-10T09:25:17.203Z,33.53
2022-08-10T09:27:49.628Z,33.23
2022-08-10T09:30:18.565Z,33.48
2022-08-10T09:36:19.318Z,33.45
2022-08-10T09:36:29.511Z,33.45
2022-08-10T09:38:59.504Z,33.87
2022-08-10T09:41:41.616Z,33.52
2022-08-10T09:44:27.521Z,33.95
2022-08-10T09:46:54.543Z,33.88
2022-08-10T09:49:52.888Z,33.87
2022-08-10T09:52:17.900Z,33.81
2022-08-10T09:55:03.562Z,34.01
2022-08-10T09:57:49.093Z,34.17
2022-08-10T10:00:23.737Z,33.66
2022-08-10T10:02:55.736Z,33.77
2022-08-10T10:05:25.586Z,34.09
2022-08-10T10:08:15.614Z,33.91
2022-08-10T10:10:48.246Z,33.95
2022-08-10T10:13:18.945Z,34.18
2022-08-10T10:16:13.541Z,34.57
2022-08-10T10:19:05.715Z,34.33
2022-08-10T10:21:52.407Z,33.94
2022-08-10T10:24:43.197Z,34.08
2022-08-10T10:27:16.183Z,34.11
2022-08-10T10:29:56.919Z,34.34
2022-08-10T10:32:32.002Z,34.12
2022-08-10T10:35:09.898Z,34.22
2022-08-10T10:38:01.356Z,33.73
2022-08-10T10:40:24.586Z,33.83
2022-08-10T10:43:00.739Z,34.14
2022-08-10T10:45:27.909Z,34.39
2022-08-10T10:48:23.751Z,34.39
2022-08-10T10:51:11.163Z,34.54
2022-08-10T10:53:47.429Z,34.75
2022-08-10T10:56:33.194Z,34.66
2022-08-10T10:59:54.512Z,34.74
2022-08-10T11:02:09.962Z,34.37
2022-08-10T11:04:41.197Z,34.75
2022-08-10T11:07:31.875Z,34.52
2022-08-10T11:10:32.977Z,34.39
2022-08-10T11:14:25.481Z,34.42
2022-08-10T11:16:03.627Z,34.64
2022-08-10T11:18:50.558Z,34.35
2022-08-10T11:21:43.669Z,34.28
2022-08-10T11:24:48.366Z,34.30
2022-08-10T11:27:23.694Z,34.21
2022-08-10T11:30:04.929Z,34.39
2022-08-10T11:32:37.779Z,34.74
2022-08-10T11:35:23.353Z,34.36
2022-08-10T11:38:29.591Z,34.56
2022-08-10T11:42:08.022Z,34.66
2022-08-10T11:43:57.312Z,34.52
2022-08-10T11:46:28.646Z,34.95
2022-08-10T11:49:04.793Z,34.72
2022-08-10T11:51:34.576Z,34.74
2022-08-10T11:54:13.277Z,34.64
2022-08-10T11:56:47.616Z,34.96
2022-08-10T11:59:34.469Z,34.81
2022-08-10T12:02:02.278Z,34.96
2022-08-10T12:04:29.362Z,34.87
2022-08-10T12:06:56.663Z,35.00
2022-08-10T12:10:09.042Z,34.77
2022-08-10T12:12:11.612Z,34.98
2022-08-10T12:14:45.169Z,34.75
2022-08-10T12:17:16.591Z,34.90
2022-08-10T12:20:01.273Z,35.03
2022-08-10T12:22:49.319Z,34.74
2022-08-10T12:25:56.664Z,34.85
2022-08-10T12:28:11.010Z,35.14
2022-08-10T12:30:38.714Z,34.78
2022-08-10T12:33:05.398Z,34.72
2022-08-10T12:35:33.546Z,34.81
2022-08-10T12:38:03.383Z,34.60
2022-08-10T12:40:35.739Z,34.88
2022-08-10T12:44:07.774Z,34.69
2022-08-10T12:46:10.196Z,34.66
2022-08-10T12:48:56.202Z,34.95
2022-08-10T12:51:24.790Z,34.72
2022-08-10T12:53:57.910Z,34.56
2022-08-10T12:56:29.273Z,34.39
2022-08-10T12:58:57.525Z,34.42
2022-08-10T13:02:06.809Z,34.43
2022-08-10T13:04:24.235Z,34.55
2022-08-10T13:06:51.691Z,34.80
2022-08-10T13:09:22.411Z,34.31
2022-08-10T13:12:36.638Z,34.71
2022-08-10T13:15:03.366Z,34.42
2022-08-10T13:17:52.796Z,34.41
2022-08-10T13:20:29.206Z,34.53
2022-08-10T13:23:00.087Z,34.33
2022-08-10T13:25:32.464Z,34.11
2022-08-10T13:28:34.714Z,34.13
2022-08-10T13:30:49.781Z,34.27
2022-08-10T13:33:18.031Z,34.04
2022-08-10T13:36:05.282Z,33.87
2022-08-10T13:38:32.036Z,33.56
2022-08-10T13:41:02.169Z,33.78
2022-08-10T13:43:29.308Z,33.90
2022-08-10T13:45:56.060Z,34.03
2022-08-10T13:48:23.042Z,33.92
2022-08-10T13:50:50.994Z,34.09
2022-08-10T13:53:18.407Z,33.84
2022-08-10T13:55:55.472Z,33.74
2022-08-10T13:58:28.314Z,33.77
2022-08-10T14:00:55.901Z,33.87
2022-08-10T14:03:23.249Z,34.11
2022-08-10T14:05:51.197Z,33.80
2022-08-10T14:08:19.134Z,33.79
2022-08-10T14:11:09.252Z,33.75
2022-08-10T14:13:33.243Z,33.49
2022-08-10T14:16:00.260Z,33.58
2022-08-10T14:18:27.128Z,33.39
2022-08-10T14:20:56.695Z,33.42
2022-08-10T14:23:23.754Z,33.43
2022-08-10T14:25:56.175Z,33.34
2022-08-10T14:28:33.440Z,33.68
2022-08-10T14:31:04.595Z,33.09
2022-08-10T14:33:32.106Z,33.48
2022-08-10T14:36:20.368Z,33.45
2022-08-10T14:38:46.811Z,33.65
2022-08-10T14:42:02.716Z,33.77
2022-08-10T14:44:14.174Z,33.42
2022-08-10T14:46:45.727Z,33.59
2022-08-10T14:49:25.863Z,33.66
2022-08-10T14:51:59.018Z,33.43
2022-08-10T14:54:29.927Z,33.24
2022-08-10T14:56:57.306Z,33.08
2022-08-10T15:00:14.628Z,33.35
2022-08-10T15:02:40.873Z,33.21
2022-08-10T15:05:03.602Z,33.45
2022-08-10T15:07:41.878Z,33.38
2022-08-10T15:10:09.850Z,33.14
2022-08-10T15:12:38.768Z,33.09
2022-08-10T15:15:10.026Z,33.00
2022-08-10T15:17:39.742Z,33.05
2022-08-10T15:20:20.680Z,33.05
2022-08-10T15:22:50.955Z,33.14
2022-08-10T15:25:25.620Z,32.94
2022-08-10T15:27:57.487Z,33.03
2022-08-10T15:30:29.792Z,32.84
2022-08-10T15:33:21.611Z,32.91
2022-08-10T15:36:23.695Z,32.85
2022-08-10T15:38:57.142Z,32.74
2022-08-10T15:41:57.750Z,32.88
2022-08-10T15:44:21.231Z,32.50
2022-08-10T15:46:51.758Z,32.48
2022-08-10T15:49:25.571Z,32.73
2022-08-10T15:52:07.695Z,32.86
2022-08-10T15:55:00.925Z,32.10
2022-08-10T15:57:48.831Z,32.70
2022-08-10T16:00:18.775Z,32.81
2022-08-10T16:02:54.146Z,32.75
2022-08-10T16:06:00.458Z,32.45
2022-08-10T16:08:10.644Z,32.46
2022-08-10T16:10:53.337Z,32.69
2022-08-10T16:13:59.740Z,32.54
2022-08-10T16:16:08.984Z,32.48
2022-08-10T16:18:37.770Z,32.54
2022-08-10T16:21:20.905Z,32.39
2022-08-10T16:24:11.424Z,32.18
2022-08-10T16:26:39.812Z,32.11
2022-08-10T16:29:08.883Z,32.49
2022-08-10T16:31:39.368Z,32.30
2022-08-10T16:34:10.712Z,32.02
2022-08-10T16:36:38.482Z,32.28
2022-08-10T16:39:05.280Z,31.99
2022-08-10T16:42:04.478Z,31.82
2022-08-10T16:44:18.995Z,31.90
2022-08-10T16:46:46.052Z,31.96
2022-08-10T16:49:13.671Z,32.07
2022-08-10T16:51:40.423Z,31.93
2022-08-10T16:54:07.462Z,31.77
2022-08-10T16:56:48.981Z,31.68
2022-08-10T16:59:20.506Z,31.80
2022-08-10T17:01:51.618Z,31.48
2022-08-10T17:04:21.516Z,31.55
2022-08-10T17:06:56.794Z,31.65
2022-08-10T17:09:29.279Z,31.54
2022-08-10T17:11:56.679Z,31.64
2022-08-10T17:14:24.580Z,31.65
2022-08-10T17:16:56.529Z,31.60
2022-08-10T17:19:24.503Z,31.59
2022-08-10T17:21:53.233Z,31.46
2022-08-10T17:24:21.995Z,31.48
2022-08-10T17:26:48.755Z,31.49
2022-08-10T17:29:58.550Z,31.41
2022-08-10T17:32:23.267Z,31.44
2022-08-10T17:34:52.373Z,31.34
2022-08-10T17:37:20.615Z,31.25
2022-08-10T17:40:10.762Z,31.25
2022-08-10T17:42:37.804Z,31.27
2022-08-10T17:45:04.746Z,31.16
2022-08-10T17:47:31.561Z,31.12
2022-08-10T17:49:59.227Z,31.07
2022-08-10T17:52:30.864Z,31.06
2022-08-10T17:55:00.127Z,31.00
2022-08-10T17:57:27.166Z,31.00
2022-08-10T17:59:53.974Z,30.94
2022-08-10T18:02:27.182Z,30.72
2022-08-10T18:04:55.488Z,30.75
2022-08-10T18:07:23.232Z,30.75
2022-08-10T18:09:50.933Z,30.56
2022-08-10T18:12:39.147Z,30.55
2022-08-10T18:15:08.487Z,30.50
2022-08-10T18:17:40.010Z,30.39
2022-08-10T18:20:07.978Z,30.31
2022-08-10T18:22:36.295Z,30.21
2022-08-10T18:25:03.769Z,30.08
2022-08-10T18:28:00.685Z,30.11
2022-08-10T18:30:18.201Z,29.98
2022-08-10T18:32:49.807Z,29.88
2022-08-10T18:35:18.045Z,29.71
2022-08-10T18:37:50.594Z,29.76
2022-08-10T18:40:17.722Z,29.70
2022-08-10T18:42:46.329Z,29.69
2022-08-10T18:45:21.531Z,29.52
2022-08-10T18:47:59.039Z,29.29
2022-08-10T18:50:31.277Z,29.14
2022-08-10T18:53:02.469Z,29.16
2022-08-10T18:55:35.482Z,29.09
2022-08-10T18:58:22.787Z,29.07
2022-08-10T19:00:59.308Z,28.88
2022-08-10T19:03:26.359Z,28.79
2022-08-10T19:05:56.610Z,28.69
2022-08-10T19:08:34.241Z,28.79
2022-08-10T19:11:10.699Z,28.88
2022-08-10T19:13:55.987Z,28.67
2022-08-10T19:16:42.389Z,28.57
2022-08-10T19:19:38.821Z,28.55
2022-08-10T19:22:15.165Z,28.32
2022-08-10T19:24:51.858Z,28.46
2022-08-10T19:27:19.092Z,28.24
2022-08-10T19:30:14.278Z,28.17
2022-08-10T19:33:00.799Z,28.12
2022-08-10T19:36:04.368Z,28.33
2022-08-10T19:38:34.790Z,28.13
2022-08-10T19:41:10.926Z,28.04
2022-08-10T19:43:59.928Z,27.71
2022-08-10T19:46:36.458Z,27.77
2022-08-10T19:49:03.838Z,27.71
2022-08-10T19:51:41.870Z,27.49
2022-08-10T19:54:12.422Z,27.45
2022-08-10T19:56:46.254Z,27.31
2022-08-10T20:00:16.724Z,27.35
2022-08-10T20:02:38.258Z,27.31
2022-08-10T20:05:10.590Z,27.24
2022-08-10T20:07:43.415Z,27.09
2022-08-10T20:10:17.006Z,27.16
2022-08-10T20:13:04.017Z,27.18
2022-08-10T20:15:51.435Z,27.11
2022-08-10T20:18:38.476Z,26.96
2022-08-10T20:21:12.420Z,26.99
2022-08-10T20:23:43.126Z,26.84
2022-08-10T20:26:27.979Z,26.97
2022-08-10T20:28:58.091Z,26.94
2022-08-10T20:31:39.632Z,26.86
2022-08-10T20:34:35.750Z,26.62
2022-08-10T20:37:05.082Z,26.80
2022-08-10T20:39:35.192Z,26.84
2022-08-10T20:42:12.215Z,26.82
2022-08-10T20:44:44.246Z,26.62
2022-08-10T20:47:17.165Z,26.59
2022-08-10T20:49:45.848Z,26.50
2022-08-10T20:52:12.990Z,26.34
2022-08-10T20:54:47.204Z,26.40
2022-08-10T20:57:54.856Z,26.55
2022-08-10T21:00:14.266Z,26.60
2022-08-10T21:03:07.116Z,26.44
2022-08-10T21:05:34.412Z,26.58
2022-08-10T21:08:15.377Z,26.23
2022-08-10T21:10:57.912Z,26.61
2022-08-10T21:13:33.926Z,26.77
2022-08-10T21:16:07.571Z,26.81
2022-08-10T21:18:44.742Z,26.82
2022-08-10T21:21:37.775Z,26.83
2022-08-10T21:24:09.286Z,26.65
2022-08-10T21:26:56.918Z,26.60
2022-08-10T21:29:23.960Z,26.47
2022-08-10T21:32:12.035Z,26.84
2022-08-10T21:34:54.336Z,26.76
2022-08-10T21:37:24.948Z,26.86
2022-08-10T21:40:34.852Z,26.97
2022-08-10T21:43:47.938Z,26.89
2022-08-10T21:46:55.160Z,26.44
2022-08-10T21:49:57.452Z,26.94
2022-08-10T21:52:53.865Z,26.43
2022-08-10T21:56:01.879Z,26.81
2022-08-10T21:59:06.654Z,26.89
2022-08-10T22:01:57.584Z,26.89
2022-08-10T22:04:45.489Z,26.95
2022-08-10T22:07:33.423Z,26.97
2022-08-10T22:10:19.496Z,26.89
2022-08-10T22:13:08.564Z,26.90
2022-08-10T22:16:10.163Z,26.88
2022-08-10T22:19:02.237Z,26.95
2022-08-10T22:21:55.135Z,26.96
2022-08-10T22:24:43.785Z,26.89
2022-08-10T22:27:47.413Z,26.87
2022-08-10T22:30:34.451Z,26.85
2022-08-10T22:33:23.734Z,26.80
2022-08-10T22:36:18.474Z,26.78
2022-08-10T22:40:11.631Z,26.63
2022-08-10T22:42:28.910Z,26.66
2022-08-10T22:45:16.322Z,26.59
2022-08-10T22:48:05.228Z,26.47
2022-08-10T22:50:32.412Z,26.58
2022-08-10T22:53:07.386Z,26.46
2022-08-10T22:55:54.172Z,26.42
2022-08-10T22:58:39.294Z,26.19
2022-08-10T23:01:40.731Z,26.17
2022-08-10T23:04:20.425Z,26.17
2022-08-10T23:07:06.887Z,26.04
2022-08-10T23:09:33.733Z,26.16
2022-08-10T23:12:02.552Z,26.09
2022-08-10T23:14:36.733Z,26.25
2022-08-10T23:17:22.578Z,25.86
2022-08-10T23:20:12.427Z,26.05
2022-08-10T23:22:43.028Z,25.88
2022-08-10T23:25:10.869Z,25.93
2022-08-10T23:27:40.543Z,25.83
2022-08-10T23:30:17.856Z,25.77
2022-08-10T23:32:48.133Z,25.71
2022-08-10T23:36:32.625Z,25.74
2022-08-10T23:38:01.976Z,25.40
2022-08-10T23:40:29.069Z,25.60
2022-08-10T23:42:55.765Z,25.55
2022-08-10T23:45:26.883Z,25.37
2022-08-10T23:47:56.020Z,25.51
2022-08-10T23:50:25.242Z,25.29
2022-08-10T23:52:54.932Z,25.07
2022-08-10T23:55:24.514Z,25.20
2022-08-10T23:58:33.266Z,24.19
